Time;durP1;ratioP1;P1;durP2;ratioP2;P2;SDS_P1;SDS_P2;PMS_P1;PMS_P2;Temp;Humidity;BMP_temperature;BMP_pressure;BME280_temperature;BME280_humidity;BME280_pressure;Samples;Min_cycle;Max_cycle;Signal;HPM_P1;HPM_P2
2023/09/04 00:01:09;;;;;;;;;;;;;;;;;;6274822;28;19962;-75
2023/09/04 00:04:09;;;;;;;;;;;;;;;;;;6254534;28;20360;-75
2023/09/04 00:07:10;;;;;;;;;;;;;;;;;;6277545;28;19926;-75
2023/09/04 00:10:10;;;;;;;;;;;;;;;;;;6283331;28;19913;-75
2023/09/04 00:13:11;;;;;;;;;;;;;;;;;;6254885;28;20034;-75
2023/09/04 00:16:11;;;;;;;;;;;;;;;;;;6262503;28;20058;-76
2023/09/04 00:19:12;;;;;;;;;;;;;;;;;;6264058;28;20640;-76
2023/09/04 00:22:13;;;;;;;;;;;;;;;;;;6254966;28;19913;-75
2023/09/04 00:25:13;;;;;;;;;;;;;;;;;;6269556;28;19985;-76
2023/09/04 00:28:13;;;;;;;;;;;;;;;;;;6272252;28;19956;-76
2023/09/04 00:31:13;;;;;;;;;;;;;;;;;;6270785;28;20379;-76
2023/09/04 00:34:15;;;;;;;;;;;;;;;;;;6292546;28;19924;-76
2023/09/04 00:37:15;;;;;;;;;;;;;;;;;;6303580;28;19919;-75
2023/09/04 00:40:15;;;;;;;;;;;;;;;;;;6273762;28;19916;-75
2023/09/04 00:43:15;;;;;;;;;;;;;;;;;;6258016;28;20371;-74
2023/09/04 00:46:15;;;;;;;;;;;;;;;;;;6286418;28;20003;-75
2023/09/04 00:49:16;;;;;;;;;;;;;;;;;;6281927;28;20334;-75
2023/09/04 00:52:16;;;;;;;;;;;;;;;;;;6278876;28;20405;-74
2023/09/04 00:55:16;;;;;;;;;;;;;;;;;;6258443;28;19936;-74
2023/09/04 00:58:16;;;;;;;;;;;;;;;;;;6272994;28;19924;-74
2023/09/04 01:01:16;;;;;;;;;;;;;;;;;;6257730;28;19917;-75
2023/09/04 01:04:17;;;;;;;;;;;;;;;;;;6252831;28;19924;-75
2023/09/04 01:07:17;;;;;;;;;;;;;;;;;;6270318;28;19990;-74
2023/09/04 01:10:17;;;;;;;;;;;;;;;;;;6259184;28;19913;-75
2023/09/04 01:13:17;;;;;;;;;;;;;;;;;;6253648;28;19923;-74
2023/09/04 01:16:17;;;;;;;;;;;;;;;;;;6250989;28;19973;-75
2023/09/04 01:19:18;;;;;;;;;;;;;;;;;;6250964;28;19959;-75
2023/09/04 01:22:18;;;;;;;;;;;;;;;;;;6252959;28;19960;-75
2023/09/04 01:25:18;;;;;;;;;;;;;;;;;;6257294;28;19956;-76
2023/09/04 01:28:18;;;;;;;;;;;;;;;;;;6273869;28;19919;-76
2023/09/04 01:31:18;;;;;;;;;;;;;;;;;;6272233;28;19958;-74
2023/09/04 01:34:18;;;;;;;;;;;;;;;;;;6258521;28;19932;-74
2023/09/04 01:37:19;;;;;;;;;;;;;;;;;;6273573;28;19959;-74
2023/09/04 01:40:19;;;;;;;;;;;;;;;;;;6253299;28;20482;-76
2023/09/04 01:43:20;;;;;;;;;;;;;;;;;;6254996;28;19920;-76
2023/09/04 01:46:20;;;;;;;;;;;;;;;;;;6253545;28;20024;-76
2023/09/04 01:49:20;;;;;;;;;;;;;;;;;;6259445;28;19963;-76
2023/09/04 01:52:21;;;;;;;;;;;;;;;;;;6275902;28;19959;-74
2023/09/04 01:55:21;;;;;;;;;;;;;;;;;;6271100;28;19943;-74
2023/09/04 01:58:21;;;;;;;;;;;;;;;;;;6279201;28;19959;-74
2023/09/04 02:01:21;;;;;;;;;;;;;;;;;;6274055;28;20007;-74
2023/09/04 02:04:22;;;;;;;;;;;;;;;;;;6256480;28;20325;-76
2023/09/04 02:07:22;;;;;;;;;;;;;;;;;;6257870;28;19921;-75
2023/09/04 02:10:23;;;;;;;;;;;;;;;;;;6256054;28;19924;-74
2023/09/04 02:13:24;;;;;;;;;;;;;;;;;;6259559;28;19913;-75
2023/09/04 02:16:24;;;;;;;;;;;;;;;;;;6261437;28;20105;-75
2023/09/04 02:19:24;;;;;;;;;;;;;;;;;;6273594;28;19966;-75
2023/09/04 02:22:25;;;;;;;;;;;;;;;;;;6261869;28;19912;-75
2023/09/04 02:25:26;;;;;;;;;;;;;;;;;;6264353;28;20408;-77
2023/09/04 02:28:26;;;;;;;;;;;;;;;;;;6264328;28;19913;-73
2023/09/04 02:31:26;;;;;;;;;;;;;;;;;;6256726;28;19970;-74
2023/09/04 02:34:27;;;;;;;;;;;;;;;;;;6257167;28;19917;-74
2023/09/04 02:37:27;;;;;;;;;;;;;;;;;;6276573;28;19975;-75
2023/09/04 02:40:27;;;;;;;;;;;;;;;;;;6277177;28;19973;-75
2023/09/04 02:43:27;;;;;;;;;;;;;;;;;;6264564;28;19951;-74
2023/09/04 02:46:32;;;;;;;;;;;;;;;;;;6260731;28;19917;-77
2023/09/04 02:49:32;;;;;;;;;;;;;;;;;;6263212;28;19931;-74
2023/09/04 02:52:32;;;;;;;;;;;;;;;;;;6277466;28;19916;-74
2023/09/04 02:55:33;;;;;;;;;;;;;;;;;;6276679;28;20522;-74
2023/09/04 02:58:34;;;;;;;;;;;;;;;;;;6261863;28;19925;-75
2023/09/04 03:01:35;;;;;;;;;;;;;;;;;;6235675;28;19913;-75
2023/09/04 03:04:35;;;;;;;;;;;;;;;;;;6239676;28;20003;-75
2023/09/04 03:07:35;;;;;;;;;;;;;;;;;;6234026;28;19914;-75
2023/09/04 03:10:35;;;;;;;;;;;;;;;;;;6244318;28;19959;-74
2023/09/04 03:13:35;;;;;;;;;;;;;;;;;;6261000;28;19929;-76
2023/09/04 03:16:36;;;;;;;;;;;;;;;;;;6283577;28;19932;-74
2023/09/04 03:19:36;;;;;;;;;;;;;;;;;;6296050;28;19948;-74
2023/09/04 03:22:36;;;;;;;;;;;;;;;;;;6274782;28;20024;-75
2023/09/04 03:25:36;;;;;;;;;;;;;;;;;;6299133;28;19920;-74
2023/09/04 03:28:36;;;;;;;;;;;;;;;;;;6306475;28;19912;-76
2023/09/04 03:31:36;;;;;;;;;;;;;;;;;;6266325;28;20011;-76
2023/09/04 03:34:36;;;;;;;;;;;;;;;;;;6301380;28;19916;-76
2023/09/04 03:37:37;;;;;;;;;;;;;;;;;;6277964;28;19999;-76
2023/09/04 03:40:37;;;;;;;;;;;;;;;;;;6278461;28;19913;-76
2023/09/04 03:43:37;;;;;;;;;;;;;;;;;;6284417;28;19972;-77
2023/09/04 03:46:37;;;;;;;;;;;;;;;;;;6267551;28;19917;-76
2023/09/04 03:49:37;;;;;;;;;;;;;;;;;;6265748;28;20290;-76
2023/09/04 03:52:41;;;;;;;;;;;;;;;;;;6282158;28;19947;-76
2023/09/04 03:55:41;;;;;;;;;;;;;;;;;;6259485;28;19971;-76
2023/09/04 03:58:41;;;;;;;;;;;;;;;;;;6262122;28;20056;-76
2023/09/04 04:01:43;;;;;;;;;;;;;;;;;;6232813;28;19924;-75
2023/09/04 04:04:43;;;;;;;;;;;;;;;;;;6234563;28;19967;-75
2023/09/04 04:07:44;;;;;;;;;;;;;;;;;;6235521;28;19920;-75
2023/09/04 04:10:44;;;;;;;;;;;;;;;;;;6254770;28;19920;-75
2023/09/04 04:13:44;;;;;;;;;;;;;;;;;;6260490;28;19980;-75
2023/09/04 04:16:44;;;;;;;;;;;;;;;;;;6238409;28;19917;-75
2023/09/04 04:19:45;;;;;;;;;;;;;;;;;;6233612;28;19975;-75
2023/09/04 04:22:45;;;;;;;;;;;;;;;;;;6233851;28;19972;-75
2023/09/04 04:25:45;;;;;;;;;;;;;;;;;;6234833;28;19914;-75
2023/09/04 04:28:45;;;;;;;;;;;;;;;;;;6235226;28;19913;-74
2023/09/04 04:31:46;;;;;;;;;;;;;;;;;;6251847;28;19924;-75
2023/09/04 04:34:46;;;;;;;;;;;;;;;;;;6231162;28;20007;-76
2023/09/04 04:37:46;;;;;;;;;;;;;;;;;;6235860;28;19967;-75
2023/09/04 04:40:46;;;;;;;;;;;;;;;;;;6250304;28;19913;-75
2023/09/04 04:43:46;;;;;;;;;;;;;;;;;;6231161;28;20051;-74
2023/09/04 04:46:46;;;;;;;;;;;;;;;;;;6247454;28;20019;-75
2023/09/04 04:49:47;;;;;;;;;;;;;;;;;;6230679;28;19921;-76
2023/09/04 04:52:47;;;;;;;;;;;;;;;;;;6246171;28;19913;-76
2023/09/04 04:55:47;;;;;;;;;;;;;;;;;;6246505;28;19924;-75
2023/09/04 04:58:47;;;;;;;;;;;;;;;;;;6266278;28;19920;-76
2023/09/04 05:01:48;;;;;;;;;;;;;;;;;;6254392;28;19970;-75
2023/09/04 05:04:48;;;;;;;;;;;;;;;;;;6250714;28;19917;-76
2023/09/04 05:07:48;;;;;;;;;;;;;;;;;;6254130;28;20294;-75
2023/09/04 05:10:49;;;;;;;;;;;;;;;;;;6255219;28;20122;-75
2023/09/04 05:13:49;;;;;;;;;;;;;;;;;;6273106;28;19944;-74
2023/09/04 05:16:49;;;;;;;;;;;;;;;;;;6252768;28;20421;-76
2023/09/04 05:19:50;;;;;;;;;;;;;;;;;;6256655;28;19984;-76
2023/09/04 05:22:50;;;;;;;;;;;;;;;;;;6254629;28;19988;-77
2023/09/04 05:25:50;;;;;;;;;;;;;;;;;;6262505;28;19919;-76
2023/09/04 05:28:50;;;;;;;;;;;;;;;;;;6281697;28;19913;-76
2023/09/04 05:31:51;;;;;;;;;;;;;;;;;;6281563;28;19944;-76
2023/09/04 05:34:51;;;;;;;;;;;;;;;;;;6280808;28;19920;-76
2023/09/04 05:37:51;;;;;;;;;;;;;;;;;;6259549;28;19920;-76
2023/09/04 05:40:51;;;;;;;;;;;;;;;;;;6267853;28;19917;-76
2023/09/04 05:43:51;;;;;;;;;;;;;;;;;;6257249;28;19919;-76
2023/09/04 05:46:51;;;;;;;;;;;;;;;;;;6267563;28;19943;-76
2023/09/04 05:49:52;;;;;;;;;;;;;;;;;;6255390;28;19917;-76
2023/09/04 05:52:53;;;;;;;;;;;;;;;;;;6263396;28;19920;-76
2023/09/04 05:55:53;;;;;;;;;;;;;;;;;;6261002;28;20356;-77
2023/09/04 05:58:53;;;;;;;;;;;;;;;;;;6277409;28;19936;-76
2023/09/04 06:01:53;;;;;;;;;;;;;;;;;;6273706;28;19921;-76
2023/09/04 06:04:53;;;;;;;;;;;;;;;;;;6258687;28;19916;-76
2023/09/04 06:07:56;;;;;;;;;;;;;;;;;;6278124;28;19920;-76
2023/09/04 06:10:56;;;;;;;;;;;;;;;;;;6268727;28;19931;-76
2023/09/04 06:13:56;;;;;;;;;;;;;;;;;;6266885;28;19929;-76
2023/09/04 06:16:57;;;;;;;;;;;;;;;;;;6265561;28;20381;-76
2023/09/04 06:19:58;;;;;;;;;;;;;;;;;;6268969;28;19970;-76
2023/09/04 06:22:58;;;;;;;;;;;;;;;;;;5920864;28;10000521;-76
2023/09/04 06:25:58;;;;;;;;;;;;;;;;;;6292607;28;20242;-76
2023/09/04 06:28:58;;;;;;;;;;;;;;;;;;6285877;28;19965;-76
2023/09/04 06:31:58;;;;;;;;;;;;;;;;;;6263236;28;19924;-76
2023/09/04 06:34:59;;;;;;;;;;;;;;;;;;6284207;28;19921;-76
2023/09/04 06:37:59;;;;;;;;;;;;;;;;;;6261221;28;20008;-74
2023/09/04 06:40:59;;;;;;;;;;;;;;;;;;6257886;28;20379;-76
2023/09/04 06:44:03;;;;;;;;;;;;;;;;;;6258612;28;19921;-77
2023/09/04 06:47:03;;;;;;;;;;;;;;;;;;6258926;28;19917;-75
2023/09/04 06:50:03;;;;;;;;;;;;;;;;;;6248687;28;20246;-76
2023/09/04 06:53:04;;;;;;;;;;;;;;;;;;6272624;28;19980;-76
2023/09/04 06:56:04;;;;;;;;;;;;;;;;;;6271593;28;20369;-79
2023/09/04 06:59:05;;;;;;;;;;;;;;;;;;6254241;28;20573;-78
2023/09/04 07:02:05;;;;;;;;;;;;;;;;;;6270494;28;20008;-78
2023/09/04 07:05:07;;;;;;;;;;;;;;;;;;6251169;28;19941;-77
2023/09/04 07:08:07;;;;;;;;;;;;;;;;;;6250485;28;19971;-78
2023/09/04 07:11:07;;;;;;;;;;;;;;;;;;6247825;28;19909;-78
2023/09/04 07:14:07;;;;;;;;;;;;;;;;;;6279601;28;19917;-79
2023/09/04 07:17:07;;;;;;;;;;;;;;;;;;6268186;28;20375;-79
2023/09/04 07:20:07;;;;;;;;;;;;;;;;;;6288032;28;19916;-79
2023/09/04 07:23:07;;;;;;;;;;;;;;;;;;6309303;28;19908;-79
2023/09/04 07:26:08;;;;;;;;;;;;;;;;;;6277097;28;19919;-78
2023/09/04 07:29:08;;;;;;;;;;;;;;;;;;6286743;28;19912;-78
2023/09/04 07:32:08;;;;;;;;;;;;;;;;;;6270383;28;19959;-74
2023/09/04 07:35:08;;;;;;;;;;;;;;;;;;6285497;28;19913;-77
2023/09/04 07:38:08;;;;;;;;;;;;;;;;;;6279640;28;20341;-78
2023/09/04 07:41:08;;;;;;;;;;;;;;;;;;6278282;28;19913;-77
2023/09/04 07:44:09;;;;;;;;;;;;;;;;;;6276890;28;19913;-76
2023/09/04 07:47:09;;;;;;;;;;;;;;;;;;6267326;28;19912;-76
2023/09/04 07:50:10;;;;;;;;;;;;;;;;;;6285074;28;19924;-76
2023/09/04 07:53:11;;;;;;;;;;;;;;;;;;6283057;28;19995;-76
2023/09/04 07:56:11;;;;;;;;;;;;;;;;;;6278841;28;19917;-76
2023/09/04 07:59:11;;;;;;;;;;;;;;;;;;6270402;28;19928;-76
2023/09/04 08:02:11;;;;;;;;;;;;;;;;;;6265336;28;19916;-76
2023/09/04 08:05:11;;;;;;;;;;;;;;;;;;6270028;28;19975;-76
2023/09/04 08:08:11;;;;;;;;;;;;;;;;;;6264244;28;20058;-77
2023/09/04 08:11:12;;;;;;;;;;;;;;;;;;6269455;28;19921;-77
2023/09/04 08:14:12;;;;;;;;;;;;;;;;;;6266061;28;20406;-78
2023/09/04 08:17:12;;;;;;;;;;;;;;;;;;6271667;28;19920;-78
2023/09/04 08:20:13;;;;;;;;;;;;;;;;;;6294234;28;20003;-78
2023/09/04 08:23:13;;;;;;;;;;;;;;;;;;6267776;28;19921;-78
2023/09/04 08:26:13;;;;;;;;;;;;;;;;;;6269597;28;19921;-79
2023/09/04 08:29:13;;;;;;;;;;;;;;;;;;6269364;28;20019;-78
2023/09/04 08:32:13;;;;;;;;;;;;;;;;;;6267237;28;19917;-79
2023/09/04 08:35:13;;;;;;;;;;;;;;;;;;6270365;28;20382;-78
2023/09/04 08:38:13;;;;;;;;;;;;;;;;;;6283018;28;19908;-79
2023/09/04 08:41:14;;;;;;;;;;;;;;;;;;6292352;28;19940;-77
2023/09/04 08:44:14;;;;;;;;;;;;;;;;;;6280404;28;20283;-77
2023/09/04 08:47:14;;;;;;;;;;;;;;;;;;6268783;28;20000;-77
2023/09/04 08:50:14;;;;;;;;;;;;;;;;;;6270301;28;20391;-80
2023/09/04 08:53:14;;;;;;;;;;;;;;;;;;6273984;28;19952;-79
2023/09/04 08:56:15;;;;;;;;;;;;;;;;;;6272084;28;20007;-78
2023/09/04 08:59:15;;;;;;;;;;;;;;;;;;6282924;28;20310;-79
2023/09/04 09:02:15;;;;;;;;;;;;;;;;;;6268215;28;19984;-78
2023/09/04 09:05:15;;;;;;;;;;;;;;;;;;6267508;28;19913;-80
2023/09/04 09:08:15;;;;;;;;;;;;;;;;;;6278268;28;20134;-80
2023/09/04 09:11:15;;;;;;;;;;;;;;;;;;6286623;28;20094;-77
2023/09/04 09:14:16;;;;;;;;;;;;;;;;;;6294435;28;19962;-78
2023/09/04 09:17:16;;;;;;;;;;;;;;;;;;6270056;28;20042;-78
2023/09/04 09:20:16;;;;;;;;;;;;;;;;;;6272384;28;19917;-79
2023/09/04 09:23:16;;;;;;;;;;;;;;;;;;6263587;28;19917;-79
2023/09/04 09:26:16;;;;;;;;;;;;;;;;;;6262474;28;19917;-79
2023/09/04 09:29:16;;;;;;;;;;;;;;;;;;6282805;28;20291;-79
2023/09/04 09:32:17;;;;;;;;;;;;;;;;;;6291343;28;20489;-81
2023/09/04 09:35:17;;;;;;;;;;;;;;;;;;6273818;28;19970;-79
2023/09/04 09:38:17;;;;;;;;;;;;;;;;;;6274646;28;20339;-79
2023/09/04 09:41:17;;;;;;;;;;;;;;;;;;6274113;28;19924;-79
2023/09/04 09:44:17;;;;;;;;;;;;;;;;;;6291717;28;19913;-79
2023/09/04 09:47:17;;;;;;;;;;;;;;;;;;6253251;28;20501;-79
2023/09/04 09:50:17;;;;;;;;;;;;;;;;;;6259971;28;19916;-79
2023/09/04 09:53:18;;;;;;;;;;;;;;;;;;6279986;28;20220;-79
2023/09/04 09:56:18;;;;;;;;;;;;;;;;;;6268244;28;19920;-79
2023/09/04 09:59:19;;;;;;;;;;;;;;;;;;6259846;28;20090;-79
2023/09/04 10:02:19;;;;;;;;;;;;;;;;;;6267268;28;19936;-78
2023/09/04 10:05:19;;;;;;;;;;;;;;;;;;6269286;28;19913;-78
2023/09/04 10:08:19;;;;;;;;;;;;;;;;;;6290229;28;19917;-78
2023/09/04 10:11:19;;;;;;;;;;;;;;;;;;6297409;28;20015;-80
2023/09/04 10:14:19;;;;;;;;;;;;;;;;;;6271140;28;19977;-79
2023/09/04 10:17:20;;;;;;;;;;;;;;;;;;6294650;28;19896;-80
2023/09/04 10:20:20;;;;;;;;;;;;;;;;;;6285274;28;20359;-79
2023/09/04 10:23:20;;;;;;;;;;;;;;;;;;6273908;28;20314;-79
2023/09/04 10:26:21;;;;;;;;;;;;;;;;;;6267360;28;19913;-80
2023/09/04 10:29:21;;;;;;;;;;;;;;;;;;6255328;28;20370;-80
2023/09/04 10:32:21;;;;;;;;;;;;;;;;;;6269115;28;20397;-79
2023/09/04 10:35:21;;;;;;;;;;;;;;;;;;6269006;28;19917;-78
2023/09/04 10:38:21;;;;;;;;;;;;;;;;;;6287532;28;19913;-78
2023/09/04 10:41:22;;;;;;;;;;;;;;;;;;6286080;28;19913;-80
2023/09/04 10:44:22;;;;;;;;;;;;;;;;;;6270480;28;19991;-78
2023/09/04 10:47:22;;;;;;;;;;;;;;;;;;6277167;28;20422;-81
2023/09/04 10:50:23;;;;;;;;;;;;;;;;;;6284115;28;19928;-80
2023/09/04 10:53:23;;;;;;;;;;;;;;;;;;6267547;28;19924;-80
2023/09/04 10:56:24;;;;;;;;;;;;;;;;;;6261587;28;19917;-80
2023/09/04 10:59:24;;;;;;;;;;;;;;;;;;6282363;28;19998;-78
2023/09/04 11:02:24;;;;;;;;;;;;;;;;;;6277719;28;19915;-79
2023/09/04 11:05:24;;;;;;;;;;;;;;;;;;6264569;28;19927;-80
2023/09/04 11:08:25;;;;;;;;;;;;;;;;;;6252499;28;19923;-80
2023/09/04 11:11:26;;;;;;;;;;;;;;;;;;6265686;28;19909;-81
2023/09/04 11:14:27;;;;;;;;;;;;;;;;;;6272369;28;20013;-81
2023/09/04 11:17:28;;;;;;;;;;;;;;;;;;6267662;28;19967;-82
2023/09/04 11:20:28;;;;;;;;;;;;;;;;;;6272837;28;19913;-81
2023/09/04 11:23:28;;;;;;;;;;;;;;;;;;6277405;28;19913;-82
2023/09/04 11:26:28;;;;;;;;;;;;;;;;;;6263676;28;19917;-81
2023/09/04 11:29:28;;;;;;;;;;;;;;;;;;6269217;28;19935;-80
2023/09/04 11:32:28;;;;;;;;;;;;;;;;;;6265094;28;20375;-81
2023/09/04 11:35:29;;;;;;;;;;;;;;;;;;6271343;28;20290;-81
2023/09/04 11:38:29;;;;;;;;;;;;;;;;;;6260803;28;19919;-80
2023/09/04 11:41:29;;;;;;;;;;;;;;;;;;6261939;28;20011;-80
2023/09/04 11:44:30;;;;;;;;;;;;;;;;;;6264968;28;19949;-81
2023/09/04 11:47:30;;;;;;;;;;;;;;;;;;6271191;28;19960;-82
2023/09/04 11:50:30;;;;;;;;;;;;;;;;;;6287832;28;19967;-82
2023/09/04 11:53:31;;;;;;;;;;;;;;;;;;6266704;28;20363;-83
2023/09/04 11:56:31;;;;;;;;;;;;;;;;;;6271275;28;20384;-82
2023/09/04 11:59:31;;;;;;;;;;;;;;;;;;6258501;28;19975;-81
2023/09/04 12:02:32;;;;;;;;;;;;;;;;;;6271852;28;19917;-82
2023/09/04 12:05:32;;;;;;;;;;;;;;;;;;6267646;28;20387;-82
2023/09/04 12:08:33;;;;;;;;;;;;;;;;;;6286624;28;20042;-82
2023/09/04 12:11:33;;;;;;;;;;;;;;;;;;6289850;28;19978;-82
2023/09/04 12:14:33;;;;;;;;;;;;;;;;;;6270476;28;19990;-82
2023/09/04 12:17:33;;;;;;;;;;;;;;;;;;6266302;28;19925;-80
2023/09/04 12:20:33;;;;;;;;;;;;;;;;;;6257414;28;19913;-82
2023/09/04 12:23:33;;;;;;;;;;;;;;;;;;6254909;28;20414;-81
2023/09/04 12:26:34;;;;;;;;;;;;;;;;;;6253135;28;20016;-82
2023/09/04 12:29:37;;;;;;;;;;;;;;;;;;6271253;28;20375;-81
2023/09/04 12:32:38;;;;;;;;;;;;;;;;;;6260003;28;19917;-82
2023/09/04 12:35:38;;;;;;;;;;;;;;;;;;6285998;28;19947;-81
2023/09/04 12:38:39;;;;;;;;;;;;;;;;;;5911623;28;10000330;-81
2023/09/04 12:41:39;;;;;;;;;;;;;;;;;;6269837;28;19936;-82
2023/09/04 12:44:39;;;;;;;;;;;;;;;;;;6259434;28;19921;-81
2023/09/04 12:47:40;;;;;;;;;;;;;;;;;;6272899;28;20286;-81
2023/09/04 12:50:40;;;;;;;;;;;;;;;;;;6274132;28;19917;-81
2023/09/04 12:53:40;;;;;;;;;;;;;;;;;;6276046;28;19909;-80
2023/09/04 12:56:40;;;;;;;;;;;;;;;;;;6266580;28;19909;-80
2023/09/04 12:59:40;;;;;;;;;;;;;;;;;;6275328;28;19921;-81
2023/09/04 13:02:40;;;;;;;;;;;;;;;;;;6288079;28;19908;-80
2023/09/04 13:05:41;;;;;;;;;;;;;;;;;;6314973;28;20340;-81
2023/09/04 13:08:41;;;;;;;;;;;;;;;;;;6280347;28;19909;-82
2023/09/04 13:11:41;;;;;;;;;;;;;;;;;;6266329;28;19913;-83
2023/09/04 13:14:41;;;;;;;;;;;;;;;;;;6271621;28;20346;-82
2023/09/04 13:17:41;;;;;;;;;;;;;;;;;;6271720;28;19909;-81
2023/09/04 13:20:42;;;;;;;;;;;;;;;;;;6271727;28;19908;-80
2023/09/04 13:23:42;;;;;;;;;;;;;;;;;;6287355;28;19916;-80
2023/09/04 13:26:43;;;;;;;;;;;;;;;;;;6259088;28;19952;-80
2023/09/04 13:29:43;;;;;;;;;;;;;;;;;;6257914;28;19916;-81
2023/09/04 13:32:43;;;;;;;;;;;;;;;;;;6263312;28;19936;-80
2023/09/04 13:35:43;;;;;;;;;;;;;;;;;;6285457;28;19921;-80
2023/09/04 13:38:43;;;;;;;;;;;;;;;;;;6265417;28;19920;-80
2023/09/04 13:41:44;;;;;;;;;;;;;;;;;;6268346;28;20688;-79
2023/09/04 13:44:44;;;;;;;;;;;;;;;;;;6261548;28;19974;-83
2023/09/04 13:47:44;;;;;;;;;;;;;;;;;;6267853;28;19943;-81
2023/09/04 13:50:44;;;;;;;;;;;;;;;;;;6286159;28;19999;-81
2023/09/04 13:53:44;;;;;;;;;;;;;;;;;;6271847;28;19909;-82
2023/09/04 13:56:44;;;;;;;;;;;;;;;;;;6277405;28;19913;-82
2023/09/04 13:59:44;;;;;;;;;;;;;;;;;;6283409;28;19920;-80
2023/09/04 14:02:44;;;;;;;;;;;;;;;;;;6267595;28;19964;-81
2023/09/04 14:05:45;;;;;;;;;;;;;;;;;;6249069;28;20389;-80
2023/09/04 14:08:45;;;;;;;;;;;;;;;;;;6271253;28;19924;-80
2023/09/04 14:11:45;;;;;;;;;;;;;;;;;;6252802;28;19921;-80
2023/09/04 14:14:45;;;;;;;;;;;;;;;;;;6269631;28;19967;-80
2023/09/04 14:17:45;;;;;;;;;;;;;;;;;;6272924;28;19923;-80
2023/09/04 14:20:46;;;;;;;;;;;;;;;;;;6266913;28;19913;-80
2023/09/04 14:23:46;;;;;;;;;;;;;;;;;;6262074;28;19917;-80
2023/09/04 14:26:46;;;;;;;;;;;;;;;;;;6258892;28;19913;-81
2023/09/04 14:29:46;;;;;;;;;;;;;;;;;;6273047;28;19920;-81
2023/09/04 14:32:46;;;;;;;;;;;;;;;;;;6267412;28;19913;-80
2023/09/04 14:35:46;;;;;;;;;;;;;;;;;;6292382;28;20454;-81
2023/09/04 14:38:46;;;;;;;;;;;;;;;;;;6269208;28;19932;-79
2023/09/04 14:41:47;;;;;;;;;;;;;;;;;;5939845;28;10000473;-80
2023/09/04 14:44:47;;;;;;;;;;;;;;;;;;6307975;28;19952;-81
2023/09/04 14:47:47;;;;;;;;;;;;;;;;;;6283602;28;20299;-80
2023/09/04 14:50:47;;;;;;;;;;;;;;;;;;6289859;28;20016;-80
2023/09/04 14:53:47;;;;;;;;;;;;;;;;;;6268211;28;19955;-80
2023/09/04 14:56:48;;;;;;;;;;;;;;;;;;6267214;28;19968;-81
2023/09/04 14:59:48;;;;;;;;;;;;;;;;;;6258873;28;19932;-80
2023/09/04 15:02:48;;;;;;;;;;;;;;;;;;6265981;28;19917;-81
2023/09/04 15:05:48;;;;;;;;;;;;;;;;;;6265244;28;19979;-81
2023/09/04 15:08:48;;;;;;;;;;;;;;;;;;6261881;28;20304;-82
2023/09/04 15:11:48;;;;;;;;;;;;;;;;;;6256932;28;19960;-82
2023/09/04 15:14:49;;;;;;;;;;;;;;;;;;6259032;28;19916;-82
2023/09/04 15:17:49;;;;;;;;;;;;;;;;;;6294168;28;19913;-83
2023/09/04 15:20:49;;;;;;;;;;;;;;;;;;6266897;28;19932;-83
2023/09/04 15:23:50;;;;;;;;;;;;;;;;;;6277712;28;19928;-83
2023/09/04 15:26:50;;;;;;;;;;;;;;;;;;6275290;28;19919;-83
2023/09/04 15:29:52;;;;;;;;;;;;;;;;;;6273356;28;20297;-83
2023/09/04 15:32:52;;;;;;;;;;;;;;;;;;6268802;28;19908;-84
2023/09/04 15:35:52;;;;;;;;;;;;;;;;;;6289130;28;20387;-83
2023/09/04 15:38:56;;;;;;;;;;;;;;;;;;6274507;28;19928;-83
2023/09/04 15:41:56;;;;;;;;;;;;;;;;;;6259830;28;19975;-82
2023/09/04 15:44:56;;;;;;;;;;;;;;;;;;6276906;28;20307;-82
2023/09/04 15:47:56;;;;;;;;;;;;;;;;;;6254686;28;19929;-82
2023/09/04 15:50:58;;;;;;;;;;;;;;;;;;6262257;28;20351;-82
2023/09/04 15:53:59;;;;;;;;;;;;;;;;;;6279865;28;19913;-82
2023/09/04 15:57:05;;;;;;;;;;;;;;;;;;6260048;28;19971;-81
2023/09/04 16:00:06;;;;;;;;;;;;;;;;;;6253717;28;19940;-81
2023/09/04 16:03:06;;;;;;;;;;;;;;;;;;6296045;28;19913;-81
2023/09/04 16:06:07;;;;;;;;;;;;;;;;;;6294282;28;19988;-82
2023/09/04 16:09:07;;;;;;;;;;;;;;;;;;6261063;28;19919;-82
2023/09/04 16:12:09;;;;;;;;;;;;;;;;;;6258682;28;20330;-82
2023/09/04 16:15:09;;;;;;;;;;;;;;;;;;6263727;28;19990;-80
2023/09/04 16:18:09;;;;;;;;;;;;;;;;;;6269036;28;19975;-82
2023/09/04 16:21:10;;;;;;;;;;;;;;;;;;6257569;28;20629;-82
2023/09/04 16:24:12;;;;;;;;;;;;;;;;;;6256022;28;19921;-82
2023/09/04 16:27:12;;;;;;;;;;;;;;;;;;6263302;28;20013;-81
2023/09/04 16:30:12;;;;;;;;;;;;;;;;;;6274501;28;19952;-80
2023/09/04 16:33:12;;;;;;;;;;;;;;;;;;6258530;28;19952;-82
2023/09/04 16:36:12;;;;;;;;;;;;;;;;;;6265575;28;19912;-81
2023/09/04 16:39:13;;;;;;;;;;;;;;;;;;6259916;28;20135;-81
2023/09/04 16:42:13;;;;;;;;;;;;;;;;;;6266921;28;19925;-81
2023/09/04 16:45:14;;;;;;;;;;;;;;;;;;6278282;28;19916;-80
2023/09/04 16:48:14;;;;;;;;;;;;;;;;;;6297891;28;19917;-80
2023/09/04 16:51:14;;;;;;;;;;;;;;;;;;6285788;28;19904;-80
2023/09/04 16:54:16;;;;;;;;;;;;;;;;;;6286802;28;19920;-74
2023/09/04 16:57:16;;;;;;;;;;;;;;;;;;6251524;28;19913;-74
2023/09/04 17:00:16;;;;;;;;;;;;;;;;;;6270007;28;19917;-75
2023/09/04 17:03:17;;;;;;;;;;;;;;;;;;6261359;28;19913;-74
2023/09/04 17:06:17;;;;;;;;;;;;;;;;;;6258399;28;19931;-74
2023/09/04 17:09:17;;;;;;;;;;;;;;;;;;6257144;28;19920;-76
2023/09/04 17:12:17;;;;;;;;;;;;;;;;;;6261618;28;19913;-74
2023/09/04 17:15:18;;;;;;;;;;;;;;;;;;6255249;28;19913;-74
2023/09/04 17:18:18;;;;;;;;;;;;;;;;;;6272892;28;20058;-74
2023/09/04 17:21:18;;;;;;;;;;;;;;;;;;6268140;28;19913;-74
2023/09/04 17:24:19;;;;;;;;;;;;;;;;;;6272153;28;19921;-74
2023/09/04 17:27:19;;;;;;;;;;;;;;;;;;6273856;28;19967;-75
2023/09/04 17:30:19;;;;;;;;;;;;;;;;;;6256034;28;20386;-75
2023/09/04 17:33:20;;;;;;;;;;;;;;;;;;6256696;28;19917;-75
2023/09/04 17:36:20;;;;;;;;;;;;;;;;;;6270144;28;20380;-75
2023/09/04 17:39:25;;;;;;;;;;;;;;;;;;6251824;28;20008;-77
2023/09/04 17:42:25;;;;;;;;;;;;;;;;;;6267338;28;19913;-75
2023/09/04 17:45:25;;;;;;;;;;;;;;;;;;6257916;28;19932;-75
2023/09/04 17:48:25;;;;;;;;;;;;;;;;;;6266349;28;19972;-75
2023/09/04 17:51:26;;;;;;;;;;;;;;;;;;6275742;28;19913;-75
2023/09/04 17:54:26;;;;;;;;;;;;;;;;;;6284836;28;19987;-75
2023/09/04 17:57:27;;;;;;;;;;;;;;;;;;6292344;28;19921;-77
2023/09/04 18:00:27;;;;;;;;;;;;;;;;;;6283128;28;19964;-74
2023/09/04 18:03:27;;;;;;;;;;;;;;;;;;6275872;28;19913;-79
2023/09/04 18:06:27;;;;;;;;;;;;;;;;;;6290954;28;19946;-79
2023/09/04 18:09:27;;;;;;;;;;;;;;;;;;6269245;28;19921;-81
2023/09/04 18:12:27;;;;;;;;;;;;;;;;;;6261902;28;20379;-79
2023/09/04 18:15:27;;;;;;;;;;;;;;;;;;6265143;28;20454;-79
2023/09/04 18:18:28;;;;;;;;;;;;;;;;;;6259376;28;19910;-80
2023/09/04 18:21:30;;;;;;;;;;;;;;;;;;6287669;28;19967;-81
2023/09/04 18:24:30;;;;;;;;;;;;;;;;;;6259831;28;19932;-79
2023/09/04 18:27:31;;;;;;;;;;;;;;;;;;6284161;28;20294;-80
2023/09/04 18:30:32;;;;;;;;;;;;;;;;;;6276629;28;19912;-79
2023/09/04 18:33:32;;;;;;;;;;;;;;;;;;6259675;28;20363;-80
2023/09/04 18:36:33;;;;;;;;;;;;;;;;;;6267046;28;19921;-80
2023/09/04 18:39:33;;;;;;;;;;;;;;;;;;6277806;28;19925;-81
2023/09/04 18:42:34;;;;;;;;;;;;;;;;;;6281560;28;19941;-80
2023/09/04 18:45:35;;;;;;;;;;;;;;;;;;6273150;28;21083;-79
2023/09/04 18:48:35;;;;;;;;;;;;;;;;;;6266096;28;19921;-80
2023/09/04 18:51:35;;;;;;;;;;;;;;;;;;6261937;28;19920;-80
2023/09/04 18:54:36;;;;;;;;;;;;;;;;;;6277605;28;19920;-81
2023/09/04 18:57:37;;;;;;;;;;;;;;;;;;6289278;28;20011;-79
2023/09/04 19:00:38;;;;;;;;;;;;;;;;;;6266126;28;19967;-79
2023/09/04 19:03:38;;;;;;;;;;;;;;;;;;6270026;28;19912;-80
2023/09/04 19:06:38;;;;;;;;;;;;;;;;;;6269356;28;19924;-79
2023/09/04 19:09:43;;;;;;;;;;;;;;;;;;6291991;28;19939;-80
2023/09/04 19:12:43;;;;;;;;;;;;;;;;;;6261747;28;19920;-80
2023/09/04 19:15:43;;;;;;;;;;;;;;;;;;6290159;28;19913;-80
2023/09/04 19:18:46;;;;;;;;;;;;;;;;;;6278228;28;19913;-82
2023/09/04 19:21:46;;;;;;;;;;;;;;;;;;6274501;28;20003;-78
2023/09/04 19:24:48;;;;;;;;;;;;;;;;;;6266179;28;19920;-80
2023/09/04 19:27:48;;;;;;;;;;;;;;;;;;6273243;28;19913;-82
2023/09/04 19:30:51;;;;;;;;;;;;;;;;;;6270656;28;20019;-79
2023/09/04 19:33:52;;;;;;;;;;;;;;;;;;6265344;28;20004;-79
2023/09/04 19:36:52;;;;;;;;;;;;;;;;;;6262272;28;19920;-78
2023/09/04 19:39:53;;;;;;;;;;;;;;;;;;6270791;28;19917;-80
2023/09/04 19:42:53;;;;;;;;;;;;;;;;;;6276005;28;20437;-81
2023/09/04 19:45:55;;;;;;;;;;;;;;;;;;6266610;28;19946;-79
2023/09/04 19:48:55;;;;;;;;;;;;;;;;;;6285890;28;20358;-80
2023/09/04 19:51:55;;;;;;;;;;;;;;;;;;6264734;28;19957;-80
2023/09/04 19:54:56;;;;;;;;;;;;;;;;;;6275719;28;19939;-79
2023/09/04 19:57:57;;;;;;;;;;;;;;;;;;6285857;28;19921;-80
2023/09/04 20:00:58;;;;;;;;;;;;;;;;;;6254484;28;19928;-80
2023/09/04 20:04:00;;;;;;;;;;;;;;;;;;6245386;28;19917;-79
2023/09/04 20:07:01;;;;;;;;;;;;;;;;;;6254442;28;19928;-80
2023/09/04 20:10:02;;;;;;;;;;;;;;;;;;6279265;28;19914;-80
2023/09/04 20:13:02;;;;;;;;;;;;;;;;;;6251575;28;19963;-78
2023/09/04 20:16:02;;;;;;;;;;;;;;;;;;6248200;28;19913;-80
2023/09/04 20:19:04;;;;;;;;;;;;;;;;;;6245114;28;19975;-79
2023/09/04 20:22:04;;;;;;;;;;;;;;;;;;6235108;28;20287;-79
2023/09/04 20:25:05;;;;;;;;;;;;;;;;;;6237942;28;20398;-79
2023/09/04 20:28:05;;;;;;;;;;;;;;;;;;6248492;28;19928;-80
2023/09/04 20:31:05;;;;;;;;;;;;;;;;;;6226398;28;19914;-80